createdAt,value
2018-12-07T00:00:21.425Z,39.15
2018-12-07T00:00:53.997Z,42.60
2018-12-07T00:01:26.579Z,37.55
2018-12-07T00:01:59.150Z,35.92
2018-12-07T00:02:31.739Z,38.13
2018-12-07T00:03:04.436Z,40.85
2018-12-07T00:03:37.031Z,34.85
2018-12-07T00:04:09.649Z,36.88
2018-12-07T00:04:42.226Z,39.18
2018-12-07T00:05:14.792Z,34.65
2018-12-07T00:05:47.366Z,36.55
2018-12-07T00:06:19.939Z,37.23
2018-12-07T00:06:52.477Z,35.52
2018-12-07T00:07:25.038Z,37.65
2018-12-07T00:07:57.618Z,35.08
2018-12-07T00:08:30.201Z,35.17
2018-12-07T00:09:03.592Z,35.92
2018-12-07T00:09:36.162Z,45.90
2018-12-07T00:10:08.865Z,32.45
2018-12-07T00:10:41.419Z,41.55
2018-12-07T00:11:13.978Z,36.98
2018-12-07T00:11:46.539Z,44.80
2018-12-07T00:12:19.118Z,32.93
2018-12-07T00:12:51.803Z,37.15
2018-12-07T00:13:24.371Z,35.00
2018-12-07T00:13:56.911Z,34.67
2018-12-07T00:14:29.556Z,33.30
2018-12-07T00:15:02.150Z,30.92
2018-12-07T00:15:34.734Z,33.60
2018-12-07T00:16:07.294Z,32.63
2018-12-07T00:16:39.856Z,30.10
2018-12-07T00:17:12.548Z,37.48
2018-12-07T00:17:45.130Z,35.95
2018-12-07T00:18:17.715Z,30.82
2018-12-07T00:18:50.293Z,34.40
2018-12-07T00:19:22.972Z,34.58
2018-12-07T00:19:55.567Z,32.95
2018-12-07T00:20:28.138Z,35.85
2018-12-07T00:21:00.719Z,32.75
2018-12-07T00:21:33.291Z,34.78
2018-12-07T00:22:05.862Z,33.00
2018-12-07T00:22:38.426Z,31.87
2018-12-07T00:23:10.995Z,33.98
2018-12-07T00:23:43.557Z,31.40
2018-12-07T00:24:16.131Z,32.28
2018-12-07T00:24:48.706Z,34.63
2018-12-07T00:25:22.339Z,31.80
2018-12-07T00:25:54.910Z,34.50
2018-12-07T00:26:27.482Z,31.17
2018-12-07T00:27:00.071Z,33.10
2018-12-07T00:27:32.656Z,31.90
2018-12-07T00:28:05.224Z,31.87
2018-12-07T00:28:37.803Z,33.05
2018-12-07T00:29:10.416Z,30.10
2018-12-07T00:29:42.990Z,36.38
2018-12-07T00:30:15.566Z,31.57
2018-12-07T00:30:48.293Z,34.80
2018-12-07T00:31:20.865Z,39.48
2018-12-07T00:31:53.754Z,33.85
2018-12-07T00:32:26.314Z,34.38
2018-12-07T00:32:58.898Z,39.45
2018-12-07T00:33:31.491Z,25.57
2018-12-07T00:34:04.235Z,28.45
2018-12-07T00:34:36.797Z,30.85
2018-12-07T00:35:09.395Z,30.08
2018-12-07T00:35:41.974Z,38.30
2018-12-07T00:36:14.575Z,30.50
2018-12-07T00:36:47.134Z,30.95
2018-12-07T00:37:19.706Z,24.95
2018-12-07T00:37:52.253Z,32.38
2018-12-07T00:38:24.970Z,29.02
2018-12-07T00:38:57.554Z,37.60
2018-12-07T00:39:30.118Z,32.53
2018-12-07T00:40:02.875Z,35.03
2018-12-07T00:40:35.416Z,34.48
2018-12-07T00:41:07.977Z,30.25
2018-12-07T00:41:40.561Z,30.15
2018-12-07T00:42:13.116Z,26.82
2018-12-07T00:42:45.792Z,29.18
2018-12-07T00:43:18.412Z,29.77
2018-12-07T00:43:51.122Z,32.20
2018-12-07T00:44:23.693Z,27.62
2018-12-07T00:44:56.259Z,25.45
2018-12-07T00:45:28.818Z,30.17
2018-12-07T00:46:01.389Z,28.52
2018-12-07T00:46:33.988Z,29.77
2018-12-07T00:47:06.577Z,29.32
2018-12-07T00:47:39.139Z,24.82
2018-12-07T00:48:12.572Z,26.25
2018-12-07T00:48:45.143Z,26.68
2018-12-07T00:49:17.716Z,33.48
2018-12-07T00:49:50.297Z,26.07
2018-12-07T00:50:23.003Z,32.38
2018-12-07T00:50:55.570Z,26.10
2018-12-07T00:51:28.141Z,32.10
2018-12-07T00:52:00.695Z,31.45
2018-12-07T00:52:33.273Z,29.67
2018-12-07T00:53:05.854Z,27.13
2018-12-07T00:53:38.425Z,33.38
2018-12-07T00:54:10.972Z,28.02
2018-12-07T00:54:43.538Z,27.67
2018-12-07T00:55:27.560Z,30.40
2018-12-07T00:56:00.155Z,27.32
2018-12-07T00:56:32.734Z,31.10
2018-12-07T00:57:05.332Z,32.78
2018-12-07T00:57:37.912Z,35.23
2018-12-07T00:58:10.471Z,32.40
2018-12-07T00:58:43.029Z,27.25
2018-12-07T00:59:15.606Z,28.23
2018-12-07T00:59:48.183Z,26.25
2018-12-07T01:00:20.746Z,31.15
2018-12-07T01:00:53.326Z,27.20
2018-12-07T01:01:25.893Z,24.57
2018-12-07T01:01:58.464Z,29.40
2018-12-07T01:02:31.028Z,29.37
2018-12-07T01:03:04.458Z,35.35
2018-12-07T01:03:37.012Z,26.15
2018-12-07T01:04:09.569Z,24.98
2018-12-07T01:04:42.147Z,25.23
2018-12-07T01:05:14.714Z,24.47
2018-12-07T01:05:47.281Z,26.95
2018-12-07T01:06:19.852Z,24.10
2018-12-07T01:06:52.417Z,26.93
2018-12-07T01:07:24.971Z,25.02
2018-12-07T01:07:57.531Z,27.85
2018-12-07T01:08:30.120Z,22.42
2018-12-07T01:09:04.501Z,27.10
2018-12-07T01:09:37.074Z,32.42
2018-12-07T01:10:09.643Z,26.75
2018-12-07T01:10:42.201Z,24.15
2018-12-07T01:11:14.774Z,24.60
2018-12-07T01:11:47.324Z,27.95
2018-12-07T01:12:19.892Z,38.08
2018-12-07T01:12:52.463Z,24.55
2018-12-07T01:13:25.041Z,28.05
2018-12-07T01:13:57.638Z,26.02
2018-12-07T01:14:30.221Z,23.90
2018-12-07T01:15:02.922Z,26.93
2018-12-07T01:15:35.468Z,27.35
2018-12-07T01:16:08.074Z,25.20
2018-12-07T01:16:40.636Z,29.50
2018-12-07T01:17:13.236Z,23.70
2018-12-07T01:17:45.830Z,35.68
2018-12-07T01:18:18.384Z,21.05
2018-12-07T01:18:50.955Z,19.48
2018-12-07T01:19:23.568Z,22.55
2018-12-07T01:19:56.129Z,28.15
2018-12-07T01:20:28.705Z,25.77
2018-12-07T01:21:01.289Z,26.37
2018-12-07T01:21:33.855Z,22.80
2018-12-07T01:22:06.405Z,29.27
2018-12-07T01:22:38.970Z,25.55
2018-12-07T01:23:11.562Z,29.80
2018-12-07T01:23:44.133Z,25.77
2018-12-07T01:24:16.694Z,25.35
2018-12-07T01:24:49.296Z,30.35
2018-12-07T01:25:21.866Z,21.30
2018-12-07T01:25:54.437Z,19.80
2018-12-07T01:26:27.018Z,25.90
2018-12-07T01:26:59.594Z,26.10
2018-12-07T01:27:32.153Z,27.00
2018-12-07T01:28:04.720Z,23.27
2018-12-07T01:28:37.297Z,28.65
2018-12-07T01:29:09.885Z,21.90
2018-12-07T01:29:42.447Z,24.45
2018-12-07T01:30:15.058Z,25.75
2018-12-07T01:30:47.640Z,20.55
2018-12-07T01:31:20.256Z,19.55
2018-12-07T01:31:53.274Z,22.55
2018-12-07T01:32:25.845Z,27.93
2018-12-07T01:32:58.402Z,22.05
2018-12-07T01:33:30.978Z,25.08
2018-12-07T01:34:03.916Z,22.25
2018-12-07T01:34:36.498Z,26.85
2018-12-07T01:35:09.207Z,20.10
2018-12-07T01:35:41.798Z,25.62
2018-12-07T01:36:14.373Z,21.93
2018-12-07T01:36:46.951Z,23.92
2018-12-07T01:37:19.513Z,27.25
2018-12-07T01:37:52.090Z,21.82
2018-12-07T01:38:24.777Z,21.80
2018-12-07T01:38:57.347Z,23.85
2018-12-07T01:39:29.901Z,18.25
2018-12-07T01:40:03.396Z,23.57
2018-12-07T01:40:35.961Z,22.22
2018-12-07T01:41:08.582Z,23.18
2018-12-07T01:41:41.149Z,30.35
2018-12-07T01:42:13.761Z,24.63
2018-12-07T01:42:46.665Z,22.93
2018-12-07T01:43:19.230Z,24.02
2018-12-07T01:43:51.810Z,21.85
2018-12-07T01:44:24.382Z,24.12
2018-12-07T01:44:56.972Z,30.72
2018-12-07T01:45:29.544Z,24.18
2018-12-07T01:46:02.105Z,23.98
2018-12-07T01:46:34.694Z,23.57
2018-12-07T01:47:07.263Z,21.80
2018-12-07T01:47:46.161Z,19.75
2018-12-07T01:48:18.713Z,22.22
2018-12-07T01:48:51.298Z,23.98
2018-12-07T01:49:23.851Z,28.73
2018-12-07T01:49:56.404Z,23.45
2018-12-07T01:50:28.968Z,21.37
2018-12-07T01:51:01.546Z,26.60
2018-12-07T01:51:34.143Z,24.02
2018-12-07T01:52:06.740Z,20.55
2018-12-07T01:52:39.312Z,26.42
2018-12-07T01:53:11.890Z,20.92
2018-12-07T01:53:44.463Z,20.92
2018-12-07T01:54:17.042Z,23.83
2018-12-07T01:54:49.590Z,22.58
2018-12-07T01:55:22.166Z,22.37
2018-12-07T01:55:54.768Z,21.57
2018-12-07T01:56:27.314Z,21.80
2018-12-07T01:56:59.882Z,23.90
2018-12-07T01:57:32.517Z,21.48
2018-12-07T01:58:05.102Z,18.95
2018-12-07T01:58:37.678Z,25.72
2018-12-07T01:59:10.257Z,18.98
2018-12-07T01:59:42.818Z,23.90
2018-12-07T02:00:15.416Z,24.43
2018-12-07T02:00:48.019Z,27.55
2018-12-07T02:01:20.596Z,19.15
2018-12-07T02:01:53.155Z,19.15
2018-12-07T02:02:25.750Z,23.60
2018-12-07T02:02:58.326Z,19.05
2018-12-07T02:03:30.974Z,25.20
2018-12-07T02:04:03.768Z,19.25
2018-12-07T02:04:36.384Z,22.75
2018-12-07T02:05:09.049Z,18.95
2018-12-07T02:05:41.624Z,22.87
2018-12-07T02:06:14.186Z,21.77
2018-12-07T02:06:46.784Z,19.90
2018-12-07T02:07:28.777Z,21.57
2018-12-07T02:08:01.352Z,21.77
2018-12-07T02:08:33.922Z,25.48
2018-12-07T02:09:07.266Z,24.00
2018-12-07T02:09:39.830Z,21.42
2018-12-07T02:10:12.413Z,17.60
2018-12-07T02:10:44.972Z,19.50
2018-12-07T02:11:17.516Z,20.92
2018-12-07T02:11:50.095Z,17.62
2018-12-07T02:12:22.660Z,25.90
2018-12-07T02:12:55.240Z,15.80
2018-12-07T02:13:27.829Z,17.35
2018-12-07T02:14:00.393Z,25.68
2018-12-07T02:14:32.941Z,21.60
2018-12-07T02:15:06.090Z,15.90
2018-12-07T02:15:38.642Z,18.35
2018-12-07T02:16:11.218Z,20.02
2018-12-07T02:16:43.793Z,21.33
2018-12-07T02:17:16.426Z,24.47
2018-12-07T02:17:49.026Z,20.52
2018-12-07T02:18:21.589Z,20.60
2018-12-07T02:18:54.168Z,17.48
2018-12-07T02:19:26.763Z,18.05
2018-12-07T02:19:59.337Z,20.82
2018-12-07T02:20:31.914Z,18.30
2018-12-07T02:21:04.500Z,15.48
2018-12-07T02:21:37.075Z,21.15
2018-12-07T02:22:09.650Z,20.02
2018-12-07T02:22:42.227Z,18.67
2018-12-07T02:23:14.777Z,18.80
2018-12-07T02:23:47.344Z,16.60
2018-12-07T02:24:19.928Z,13.60
2018-12-07T02:24:52.490Z,14.63
2018-12-07T02:25:25.071Z,19.15
2018-12-07T02:25:57.674Z,20.40
2018-12-07T02:26:30.272Z,16.65
2018-12-07T02:27:02.861Z,17.25
2018-12-07T02:27:41.217Z,16.10
2018-12-07T02:28:13.808Z,17.92
2018-12-07T02:28:46.390Z,18.17
2018-12-07T02:29:18.993Z,16.07
2018-12-07T02:29:51.585Z,19.35
2018-12-07T02:30:24.171Z,17.12
2018-12-07T02:30:56.731Z,14.55
2018-12-07T02:31:29.314Z,16.75
2018-12-07T02:32:01.884Z,25.25
2018-12-07T02:32:34.448Z,18.82
2018-12-07T02:33:07.004Z,17.52
2018-12-07T02:33:39.564Z,20.48
2018-12-07T02:34:12.122Z,17.02
2018-12-07T02:34:44.673Z,16.45
2018-12-07T02:35:17.258Z,20.05
2018-12-07T02:35:49.971Z,18.10
2018-12-07T02:36:22.537Z,17.75
2018-12-07T02:36:55.123Z,22.73
2018-12-07T02:37:27.689Z,18.95
2018-12-07T02:38:00.256Z,17.50
2018-12-07T02:38:32.819Z,20.65
2018-12-07T02:39:06.028Z,20.37
2018-12-07T02:39:38.710Z,16.40
2018-12-07T02:40:11.298Z,16.32
2018-12-07T02:40:44.020Z,19.80
2018-12-07T02:41:16.579Z,18.35
2018-12-07T02:41:49.158Z,23.00
2018-12-07T02:42:21.725Z,19.50
2018-12-07T02:42:54.277Z,14.07
2018-12-07T02:43:26.834Z,20.60
2018-12-07T02:43:59.411Z,15.23
2018-12-07T02:44:31.991Z,16.50
2018-12-07T02:45:04.997Z,12.45
2018-12-07T02:45:37.564Z,14.50
2018-12-07T02:46:10.160Z,16.62
2018-12-07T02:46:42.864Z,13.53
2018-12-07T02:47:15.424Z,18.52
2018-12-07T02:47:47.993Z,20.35
2018-12-07T02:48:20.582Z,15.55
2018-12-07T02:48:53.388Z,17.42
2018-12-07T02:49:25.958Z,20.10
2018-12-07T02:49:58.562Z,19.37
2018-12-07T02:50:31.150Z,17.60
2018-12-07T02:51:03.846Z,14.43
2018-12-07T02:51:36.450Z,29.42
2018-12-07T02:52:09.027Z,17.60
2018-12-07T02:52:41.588Z,19.02
2018-12-07T02:53:14.156Z,16.65
2018-12-07T02:53:46.733Z,16.73
2018-12-07T02:54:19.291Z,16.30
2018-12-07T02:54:51.870Z,19.07
2018-12-07T02:55:24.430Z,19.90
2018-12-07T02:55:57.125Z,17.62
2018-12-07T02:56:29.713Z,15.95
2018-12-07T02:57:02.355Z,16.00
2018-12-07T02:57:34.979Z,15.65
2018-12-07T02:58:07.550Z,16.70
2018-12-07T02:58:40.092Z,15.70
2018-12-07T02:59:12.697Z,16.75
2018-12-07T02:59:45.269Z,13.88
2018-12-07T03:00:17.842Z,14.80
2018-12-07T03:00:50.422Z,16.15
2018-12-07T03:01:22.989Z,17.02
2018-12-07T03:01:55.565Z,19.25
2018-12-07T03:02:28.186Z,14.35
2018-12-07T03:03:00.749Z,30.37
2018-12-07T03:03:33.317Z,17.73
2018-12-07T03:04:05.892Z,15.90
2018-12-07T03:04:38.470Z,14.75
2018-12-07T03:05:11.048Z,18.92
2018-12-07T03:05:43.613Z,16.52
2018-12-07T03:06:16.184Z,16.17
2018-12-07T03:06:48.770Z,14.73
2018-12-07T03:07:21.331Z,14.50
2018-12-07T03:07:53.958Z,18.57
2018-12-07T03:08:26.882Z,17.27
2018-12-07T03:08:59.464Z,18.45
2018-12-07T03:09:32.178Z,16.05
2018-12-07T03:10:05.657Z,14.68
2018-12-07T03:10:38.247Z,18.55
2018-12-07T03:11:10.837Z,16.50
2018-12-07T03:11:43.458Z,18.50
2018-12-07T03:12:16.036Z,19.30
2018-12-07T03:12:48.610Z,15.93
2018-12-07T03:13:21.243Z,14.43
2018-12-07T03:13:53.820Z,18.80
2018-12-07T03:14:26.396Z,13.35
2018-12-07T03:14:58.998Z,14.33
2018-12-07T03:15:31.603Z,17.62
2018-12-07T03:16:04.233Z,18.75
2018-12-07T03:16:36.843Z,13.32
2018-12-07T03:17:09.441Z,18.20
2018-12-07T03:17:42.039Z,17.65
2018-12-07T03:18:27.710Z,17.52
2018-12-07T03:19:00.323Z,12.33
2018-12-07T03:19:32.904Z,14.98
2018-12-07T03:20:05.650Z,14.60
2018-12-07T03:20:38.249Z,15.15
2018-12-07T03:21:10.836Z,14.05
2018-12-07T03:21:43.422Z,22.32
2018-12-07T03:22:16.012Z,14.58
2018-12-07T03:22:48.605Z,14.55
2018-12-07T03:23:21.208Z,11.50
2018-12-07T03:23:53.830Z,13.18
2018-12-07T03:24:26.414Z,16.23
2018-12-07T03:24:58.998Z,18.85
2018-12-07T03:25:31.625Z,14.38
2018-12-07T03:26:04.225Z,15.75
2018-12-07T03:26:36.826Z,15.43
2018-12-07T03:27:09.413Z,20.75
2018-12-07T03:27:42.013Z,15.15
2018-12-07T03:28:14.604Z,18.32
2018-12-07T03:28:47.226Z,17.32
2018-12-07T03:29:19.849Z,14.18
2018-12-07T03:29:52.457Z,17.45
2018-12-07T03:30:25.060Z,15.20
2018-12-07T03:30:57.649Z,17.55
2018-12-07T03:31:30.278Z,13.90
2018-12-07T03:32:02.884Z,14.07
2018-12-07T03:32:35.623Z,13.93
2018-12-07T03:33:08.403Z,15.35
2018-12-07T03:33:41.024Z,13.80
2018-12-07T03:34:13.702Z,18.52
2018-12-07T03:34:46.309Z,14.00
2018-12-07T03:35:18.898Z,17.07
2018-12-07T03:35:51.492Z,20.35
2018-12-07T03:36:24.098Z,13.22
2018-12-07T03:36:56.669Z,17.45
2018-12-07T03:37:29.271Z,20.05
2018-12-07T03:38:01.869Z,15.68
2018-12-07T03:38:34.467Z,20.75
2018-12-07T03:39:07.036Z,19.90
2018-12-07T03:39:39.627Z,14.87
2018-12-07T03:40:12.385Z,15.58
2018-12-07T03:40:44.983Z,13.62
2018-12-07T03:41:17.571Z,18.25
2018-12-07T03:41:50.162Z,18.23
2018-12-07T03:42:23.414Z,25.45
2018-12-07T03:42:56.040Z,16.27
2018-12-07T03:43:28.609Z,20.02
2018-12-07T03:44:01.211Z,14.65
2018-12-07T03:44:33.872Z,14.13
2018-12-07T03:45:06.638Z,20.95
2018-12-07T03:45:39.241Z,15.30
2018-12-07T03:46:11.841Z,15.78
2018-12-07T03:46:44.422Z,15.58
2018-12-07T03:47:17.038Z,21.27
2018-12-07T03:47:49.691Z,16.87
2018-12-07T03:48:22.304Z,21.60
2018-12-07T03:48:54.909Z,18.25
2018-12-07T03:49:27.500Z,15.05
2018-12-07T03:50:00.537Z,13.85
2018-12-07T03:50:33.197Z,23.18
2018-12-07T03:51:05.796Z,18.52
2018-12-07T03:51:38.406Z,16.52
2018-12-07T03:52:11.124Z,23.20
2018-12-07T03:52:43.850Z,20.72
2018-12-07T03:53:16.449Z,17.10
2018-12-07T03:53:49.051Z,17.32
2018-12-07T03:54:21.658Z,15.80
2018-12-07T03:54:54.365Z,15.60
2018-12-07T03:55:26.959Z,20.95
2018-12-07T03:55:59.556Z,14.47
2018-12-07T03:56:32.187Z,21.02
2018-12-07T03:57:04.783Z,17.02
2018-12-07T03:57:37.490Z,17.67
2018-12-07T03:58:10.075Z,16.70
2018-12-07T03:58:42.696Z,17.92
2018-12-07T03:59:15.298Z,18.87
2018-12-07T03:59:47.894Z,14.23
2018-12-07T04:00:20.473Z,16.95
2018-12-07T04:00:53.070Z,16.32
2018-12-07T04:01:25.670Z,22.70
2018-12-07T04:01:58.754Z,19.00
2018-12-07T04:02:31.358Z,19.98
2018-12-07T04:03:03.965Z,16.67
2018-12-07T04:03:36.561Z,17.45
2018-12-07T04:04:09.165Z,20.80
2018-12-07T04:04:41.807Z,21.12
2018-12-07T04:05:14.443Z,18.80
2018-12-07T04:05:47.124Z,16.65
2018-12-07T04:06:20.027Z,17.85
2018-12-07T04:06:52.618Z,22.52
2018-12-07T04:07:25.250Z,18.50
2018-12-07T04:07:57.815Z,18.25
2018-12-07T04:08:30.407Z,20.40
2018-12-07T04:09:05.126Z,19.32
2018-12-07T04:09:37.698Z,29.27
2018-12-07T04:10:10.306Z,24.80
2018-12-07T04:10:42.926Z,18.25
2018-12-07T04:11:15.493Z,27.80
2018-12-07T04:11:48.074Z,21.97
2018-12-07T04:12:20.659Z,22.62
2018-12-07T04:12:53.263Z,24.23
2018-12-07T04:13:25.838Z,22.22
2018-12-07T04:13:58.431Z,17.12
2018-12-07T04:14:31.057Z,23.25
2018-12-07T04:15:04.145Z,21.25
2018-12-07T04:15:36.850Z,21.85
2018-12-07T04:16:09.449Z,22.65
2018-12-07T04:16:42.030Z,28.50
2018-12-07T04:17:14.610Z,24.98
2018-12-07T04:17:47.185Z,22.00
2018-12-07T04:18:19.808Z,21.05
2018-12-07T04:18:52.405Z,20.00
2018-12-07T04:19:24.996Z,17.15
2018-12-07T04:19:57.615Z,27.02
2018-12-07T04:20:30.196Z,18.05
2018-12-07T04:21:02.802Z,22.40
2018-12-07T04:21:35.377Z,29.20
2018-12-07T04:22:07.970Z,22.15
2018-12-07T04:22:40.551Z,18.92
2018-12-07T04:23:13.143Z,19.42
2018-12-07T04:23:45.780Z,20.48
2018-12-07T04:24:18.378Z,19.23
2018-12-07T04:24:50.975Z,22.48
2018-12-07T04:25:23.593Z,24.35
2018-12-07T04:25:56.188Z,32.80
2018-12-07T04:26:28.753Z,18.82
2018-12-07T04:27:01.339Z,20.15
2018-12-07T04:27:33.955Z,19.27
2018-12-07T04:28:06.545Z,25.05
2018-12-07T04:28:39.138Z,23.00
2018-12-07T04:29:11.757Z,23.12
2018-12-07T04:29:44.333Z,20.55
2018-12-07T04:30:25.045Z,20.85
2018-12-07T04:30:57.663Z,22.05
2018-12-07T04:31:30.241Z,20.12
2018-12-07T04:32:02.940Z,28.75
2018-12-07T04:32:35.623Z,20.20
2018-12-07T04:33:08.218Z,21.55
2018-12-07T04:33:41.434Z,22.17
2018-12-07T04:34:14.174Z,25.15
2018-12-07T04:34:46.798Z,24.40
2018-12-07T04:35:19.521Z,20.70
2018-12-07T04:35:52.096Z,20.17
2018-12-07T04:36:24.673Z,19.92
2018-12-07T04:36:57.272Z,22.93
2018-12-07T04:37:29.862Z,34.33
2018-12-07T04:38:02.477Z,19.80
2018-12-07T04:38:35.041Z,21.57
2018-12-07T04:39:07.628Z,24.52
2018-12-07T04:39:40.261Z,21.87
2018-12-07T04:40:12.848Z,23.98
2018-12-07T04:40:45.442Z,25.00
2018-12-07T04:41:18.036Z,29.12
2018-12-07T04:41:50.665Z,26.93
2018-12-07T04:42:23.363Z,21.60
2018-12-07T04:42:55.949Z,22.80
2018-12-07T04:43:28.535Z,21.30
2018-12-07T04:44:01.094Z,26.95
2018-12-07T04:44:33.653Z,28.27
2018-12-07T04:45:06.388Z,24.80
2018-12-07T04:45:38.970Z,26.42
2018-12-07T04:46:11.577Z,22.17
2018-12-07T04:46:44.159Z,21.75
2018-12-07T04:47:16.735Z,26.02
2018-12-07T04:47:49.319Z,28.42
2018-12-07T04:48:21.885Z,25.97
2018-12-07T04:48:54.484Z,22.70
2018-12-07T04:49:27.068Z,21.87
2018-12-07T04:49:59.654Z,25.60
2018-12-07T04:50:32.249Z,24.12
2018-12-07T04:51:04.834Z,25.77
2018-12-07T04:51:37.427Z,21.93
2018-12-07T04:52:10.019Z,23.00
2018-12-07T04:52:42.617Z,19.90
2018-12-07T04:53:15.329Z,28.05
2018-12-07T04:53:47.914Z,23.07
2018-12-07T04:54:20.531Z,26.55
2018-12-07T04:54:53.119Z,23.27
2018-12-07T04:55:25.702Z,19.65
2018-12-07T04:55:58.308Z,23.98
2018-12-07T04:56:30.884Z,25.35
2018-12-07T04:57:03.480Z,19.40
2018-12-07T04:57:36.125Z,24.50
2018-12-07T04:58:08.722Z,21.45
2018-12-07T04:58:41.304Z,22.77
2018-12-07T04:59:13.888Z,21.15
2018-12-07T04:59:46.497Z,25.57
2018-12-07T05:00:19.087Z,23.77
2018-12-07T05:00:51.688Z,23.45
2018-12-07T05:01:24.297Z,22.77
2018-12-07T05:01:56.882Z,21.87
2018-12-07T05:02:29.483Z,24.37
2018-12-07T05:03:02.061Z,20.68
2018-12-07T05:03:34.647Z,22.45
2018-12-07T05:04:07.247Z,30.45
2018-12-07T05:04:39.873Z,25.05
2018-12-07T05:05:12.714Z,24.32
2018-12-07T05:05:45.293Z,21.27
2018-12-07T05:06:17.882Z,26.05
2018-12-07T05:06:50.508Z,21.52
2018-12-07T05:07:23.103Z,21.77
2018-12-07T05:07:55.670Z,22.55
2018-12-07T05:08:28.250Z,27.13
2018-12-07T05:09:00.835Z,21.52
2018-12-07T05:09:33.410Z,25.85
2018-12-07T05:10:06.492Z,22.52
2018-12-07T05:10:39.076Z,21.05
2018-12-07T05:11:11.681Z,24.35
2018-12-07T05:11:44.273Z,25.32
2018-12-07T05:12:16.904Z,22.95
2018-12-07T05:12:49.501Z,31.45
2018-12-07T05:13:22.106Z,28.32
2018-12-07T05:13:54.708Z,20.90
2018-12-07T05:14:27.301Z,24.07
2018-12-07T05:14:59.885Z,27.67
2018-12-07T05:15:32.452Z,19.48
2018-12-07T05:16:05.024Z,25.02
2018-12-07T05:16:37.638Z,21.97
2018-12-07T05:17:10.221Z,26.12
2018-12-07T05:17:42.837Z,21.73
2018-12-07T05:18:15.434Z,24.07
2018-12-07T05:18:48.029Z,26.87
2018-12-07T05:19:20.637Z,32.95
2018-12-07T05:19:53.232Z,24.82
2018-12-07T05:20:25.831Z,27.75
2018-12-07T05:20:58.415Z,22.95
2018-12-07T05:21:30.999Z,22.48
2018-12-07T05:22:03.603Z,24.05
2018-12-07T05:22:36.183Z,25.80
2018-12-07T05:23:08.800Z,24.87
2018-12-07T05:23:41.349Z,22.95
2018-12-07T05:24:13.928Z,29.65
2018-12-07T05:24:46.522Z,33.10
2018-12-07T05:25:19.081Z,28.50
2018-12-07T05:25:51.656Z,25.97
2018-12-07T05:26:24.226Z,28.73
2018-12-07T05:26:57.076Z,27.27
2018-12-07T05:27:29.645Z,24.12
2018-12-07T05:28:02.203Z,28.00
2018-12-07T05:28:34.813Z,25.17
2018-12-07T05:29:07.391Z,26.73
2018-12-07T05:29:39.997Z,23.75
2018-12-07T05:30:12.599Z,23.75
2018-12-07T05:30:45.212Z,23.05
2018-12-07T05:31:17.831Z,25.02
2018-12-07T05:31:50.426Z,25.65
2018-12-07T05:32:23.034Z,26.68
2018-12-07T05:32:55.633Z,27.65
2018-12-07T05:33:28.254Z,25.27
2018-12-07T05:34:00.888Z,22.20
2018-12-07T05:34:33.491Z,25.37
2018-12-07T05:35:12.557Z,19.23
2018-12-07T05:35:45.145Z,20.37
2018-12-07T05:36:17.729Z,23.52
2018-12-07T05:36:50.316Z,24.67
2018-12-07T05:37:22.935Z,22.50
2018-12-07T05:37:55.528Z,25.20
2018-12-07T05:38:28.102Z,21.73
2018-12-07T05:39:00.739Z,23.00
2018-12-07T05:39:33.350Z,21.90
2018-12-07T05:40:06.186Z,22.93
2018-12-07T05:40:38.799Z,24.02
2018-12-07T05:41:11.409Z,25.68
2018-12-07T05:41:44.036Z,21.82
2018-12-07T05:42:16.617Z,25.05
2018-12-07T05:42:49.211Z,27.13
2018-12-07T05:43:21.910Z,27.10
2018-12-07T05:43:56.845Z,26.07
2018-12-07T05:44:29.426Z,21.12
2018-12-07T05:45:02.059Z,23.47
2018-12-07T05:45:34.654Z,25.90
2018-12-07T05:46:07.255Z,21.30
2018-12-07T05:46:39.870Z,22.42
2018-12-07T05:47:12.461Z,22.50
2018-12-07T05:47:45.063Z,23.67
2018-12-07T05:48:23.645Z,26.70
2018-12-07T05:48:52.403Z,22.60
2018-12-07T05:49:25.615Z,23.70
2018-12-07T05:49:58.200Z,27.73
2018-12-07T05:50:30.834Z,26.68
2018-12-07T05:51:03.464Z,22.45
2018-12-07T05:51:36.044Z,24.37
2018-12-07T05:52:08.670Z,23.52
2018-12-07T05:52:41.266Z,24.10
2018-12-07T05:53:13.824Z,21.73
2018-12-07T05:53:46.434Z,26.55
2018-12-07T05:54:19.020Z,26.20
2018-12-07T05:54:51.619Z,28.30
2018-12-07T05:55:24.224Z,22.10
2018-12-07T05:55:56.871Z,26.82
2018-12-07T05:56:29.456Z,26.35
2018-12-07T05:57:02.065Z,23.25
2018-12-07T05:57:34.632Z,24.85
2018-12-07T05:58:07.264Z,24.80
2018-12-07T05:58:39.871Z,23.83
2018-12-07T05:59:12.485Z,24.32
2018-12-07T05:59:45.066Z,27.50
2018-12-07T06:00:17.682Z,24.67
2018-12-07T06:00:50.277Z,36.17
2018-12-07T06:01:22.927Z,24.23
2018-12-07T06:01:55.555Z,23.18
2018-12-07T06:02:28.160Z,26.90
2018-12-07T06:03:00.754Z,25.88
2018-12-07T06:03:33.426Z,30.15
2018-12-07T06:04:05.989Z,32.70
2018-12-07T06:04:38.614Z,24.90
2018-12-07T06:05:11.274Z,23.45
2018-12-07T06:05:43.941Z,26.05
2018-12-07T06:06:16.506Z,31.35
2018-12-07T06:06:49.128Z,29.25
2018-12-07T06:07:21.717Z,26.30
2018-12-07T06:07:54.304Z,23.98
2018-12-07T06:08:26.878Z,21.37
2018-12-07T06:08:59.452Z,28.83
2018-12-07T06:09:32.035Z,25.85
2018-12-07T06:10:04.969Z,28.17
2018-12-07T06:10:37.565Z,31.05
2018-12-07T06:11:10.146Z,26.30
2018-12-07T06:11:42.746Z,22.60
2018-12-07T06:12:15.365Z,25.80
2018-12-07T06:12:47.941Z,26.52
2018-12-07T06:13:20.534Z,25.43
2018-12-07T06:13:53.123Z,22.55
2018-12-07T06:14:25.735Z,30.00
2018-12-07T06:14:58.322Z,29.07
2018-12-07T06:15:30.907Z,25.40
2018-12-07T06:16:03.489Z,27.20
2018-12-07T06:16:36.062Z,30.72
2018-12-07T06:17:08.670Z,22.55
2018-12-07T06:17:41.288Z,26.02
2018-12-07T06:18:13.873Z,25.12
2018-12-07T06:18:46.469Z,28.83
2018-12-07T06:19:19.086Z,22.20
2018-12-07T06:19:51.677Z,26.10
2018-12-07T06:20:24.277Z,33.08
2018-12-07T06:20:56.890Z,25.65
2018-12-07T06:21:29.515Z,24.85
2018-12-07T06:22:02.096Z,21.87
2018-12-07T06:22:34.681Z,24.25
2018-12-07T06:23:07.376Z,22.58
2018-12-07T06:23:39.991Z,25.45
2018-12-07T06:24:12.573Z,29.32
2018-12-07T06:24:45.177Z,28.67
2018-12-07T06:25:17.757Z,27.55
2018-12-07T06:25:50.346Z,25.35
2018-12-07T06:26:22.946Z,28.60
2018-12-07T06:26:55.545Z,24.50
2018-12-07T06:27:28.143Z,26.00
2018-12-07T06:28:00.722Z,26.07
2018-12-07T06:28:33.329Z,23.52
2018-12-07T06:29:05.936Z,25.20
2018-12-07T06:29:38.539Z,21.80
2018-12-07T06:30:11.185Z,23.38
2018-12-07T06:30:43.786Z,21.50
2018-12-07T06:31:16.399Z,27.05
2018-12-07T06:31:49.103Z,24.90
2018-12-07T06:32:21.702Z,24.15
2018-12-07T06:32:54.276Z,23.20
2018-12-07T06:33:26.871Z,28.65
2018-12-07T06:33:59.506Z,22.17
2018-12-07T06:34:32.105Z,22.42
2018-12-07T06:35:04.809Z,23.38
2018-12-07T06:35:37.414Z,29.52
2018-12-07T06:36:10.021Z,31.40
2018-12-07T06:36:42.604Z,31.40
2018-12-07T06:37:15.218Z,25.12
2018-12-07T06:37:47.807Z,26.15
2018-12-07T06:38:20.446Z,24.27
2018-12-07T06:38:53.029Z,30.85
2018-12-07T06:39:25.663Z,28.80
2018-12-07T06:39:58.355Z,23.98
2018-12-07T06:40:31.107Z,23.77
2018-12-07T06:41:03.757Z,22.35
2018-12-07T06:41:36.429Z,25.82
2018-12-07T06:42:09.077Z,20.35
2018-12-07T06:42:41.765Z,26.80
2018-12-07T06:43:14.474Z,26.00
2018-12-07T06:43:47.618Z,25.75
2018-12-07T06:44:20.196Z,24.00
2018-12-07T06:44:52.868Z,23.05
2018-12-07T06:45:25.450Z,24.98
2018-12-07T06:45:58.058Z,26.80
2018-12-07T06:46:30.654Z,22.45
2018-12-07T06:47:03.263Z,25.25
2018-12-07T06:47:35.880Z,22.05
2018-12-07T06:48:08.443Z,21.90
2018-12-07T06:48:41.033Z,21.87
2018-12-07T06:49:13.671Z,24.37
2018-12-07T06:49:46.260Z,22.55
2018-12-07T06:50:18.861Z,29.55
2018-12-07T06:50:51.447Z,30.08
2018-12-07T06:51:24.066Z,32.45
2018-12-07T06:51:56.691Z,21.12
2018-12-07T06:52:29.278Z,25.08
2018-12-07T06:53:01.877Z,24.32
2018-12-07T06:53:34.448Z,25.37
2018-12-07T06:54:07.069Z,23.87
2018-12-07T06:54:39.730Z,20.75
2018-12-07T06:55:12.327Z,26.02
2018-12-07T06:55:44.936Z,22.30
2018-12-07T06:56:17.758Z,21.93
2018-12-07T06:56:50.365Z,26.33
2018-12-07T06:57:22.967Z,23.18
2018-12-07T06:57:55.545Z,21.50
2018-12-07T06:58:28.170Z,23.30
2018-12-07T06:59:00.751Z,24.18
2018-12-07T06:59:33.394Z,20.72
2018-12-07T07:00:07.216Z,25.05
2018-12-07T07:00:39.832Z,28.85
2018-12-07T07:01:12.454Z,23.87